createdAt,value
2018-12-02T00:00:54.625Z,64.57
2018-12-02T00:03:23.699Z,63.73
2018-12-02T00:05:53.301Z,56.13
2018-12-02T00:08:22.289Z,63.07
2018-12-02T00:10:51.436Z,64.30
2018-12-02T00:13:20.434Z,62.93
2018-12-02T00:15:49.580Z,65.80
2018-12-02T00:18:18.559Z,58.93
2018-12-02T00:20:47.554Z,58.33
2018-12-02T00:23:16.593Z,58.40
2018-12-02T00:25:45.572Z,61.83
2018-12-02T00:28:14.556Z,61.37
2018-12-02T00:30:43.596Z,58.30
2018-12-02T00:33:12.562Z,61.47
2018-12-02T00:35:41.598Z,64.63
2018-12-02T00:38:10.607Z,62.50
2018-12-02T00:40:39.590Z,60.20
2018-12-02T00:43:08.950Z,64.27
2018-12-02T00:45:38.515Z,59.23
2018-12-02T00:48:08.850Z,58.70
2018-12-02T00:50:38.846Z,61.63
2018-12-02T00:53:09.429Z,66.43
2018-12-02T00:55:40.878Z,66.10
2018-12-02T00:58:09.853Z,68.43
2018-12-02T01:00:39.449Z,64.57
2018-12-02T01:03:09.592Z,65.60
2018-12-02T01:05:38.563Z,63.70
2018-12-02T01:08:08.065Z,64.80
2018-12-02T01:10:37.656Z,66.03
2018-12-02T01:13:08.991Z,63.93
2018-12-02T01:15:38.635Z,62.37
2018-12-02T01:18:08.109Z,66.87
2018-12-02T01:20:37.956Z,68.53
2018-12-02T01:23:07.363Z,64.77
2018-12-02T01:25:37.248Z,68.37
2018-12-02T01:28:06.771Z,65.00
2018-12-02T01:30:35.846Z,70.07
2018-12-02T01:33:04.943Z,69.60
2018-12-02T01:35:34.024Z,65.73
2018-12-02T01:38:03.092Z,70.27
2018-12-02T01:40:32.096Z,73.27
2018-12-02T01:43:01.091Z,66.63
2018-12-02T01:45:30.098Z,72.93
2018-12-02T01:47:59.063Z,67.47
2018-12-02T01:50:28.064Z,65.40
2018-12-02T01:52:57.594Z,66.90
2018-12-02T01:55:26.603Z,74.73
2018-12-02T01:57:55.594Z,76.10
2018-12-02T02:00:28.872Z,72.20
2018-12-02T02:02:58.216Z,69.47
2018-12-02T02:05:27.603Z,63.67
2018-12-02T02:07:56.636Z,72.10
2018-12-02T02:10:27.608Z,66.27
2018-12-02T02:12:56.668Z,68.17
2018-12-02T02:15:25.794Z,64.30
2018-12-02T02:17:54.961Z,63.33
2018-12-02T02:20:25.601Z,69.73
2018-12-02T02:22:54.664Z,68.27
2018-12-02T02:25:24.364Z,67.83
2018-12-02T02:27:54.940Z,71.03
2018-12-02T02:30:24.955Z,67.60
2018-12-02T02:32:54.129Z,69.53
2018-12-02T02:35:23.304Z,66.93
2018-12-02T02:37:53.535Z,72.23
2018-12-02T02:40:24.630Z,69.70
2018-12-02T02:42:53.657Z,66.83
2018-12-02T02:45:22.692Z,71.40
2018-12-02T02:47:51.685Z,66.70
2018-12-02T02:50:21.663Z,67.00
2018-12-02T02:52:52.678Z,67.37
2018-12-02T02:55:21.651Z,68.87
2018-12-02T02:57:50.666Z,68.03
2018-12-02T03:00:20.677Z,62.07
2018-12-02T03:02:49.677Z,66.80
2018-12-02T03:05:18.763Z,69.23
2018-12-02T03:07:47.783Z,71.47
2018-12-02T03:10:19.966Z,74.37
2018-12-02T03:12:50.647Z,71.47
2018-12-02T03:15:20.434Z,68.57
2018-12-02T03:17:50.210Z,67.53
2018-12-02T03:20:20.910Z,71.43
2018-12-02T03:22:51.821Z,63.17
2018-12-02T03:25:21.700Z,68.93
2018-12-02T03:27:50.653Z,72.43
2018-12-02T03:30:20.614Z,67.40
2018-12-02T03:32:49.786Z,67.87
2018-12-02T03:35:20.744Z,67.77
2018-12-02T03:37:49.790Z,70.67
2018-12-02T03:40:22.398Z,66.70
2018-12-02T03:42:52.005Z,65.07
2018-12-02T03:45:23.096Z,75.97
2018-12-02T03:47:52.132Z,70.10
2018-12-02T03:50:22.124Z,66.60
2018-12-02T03:52:51.119Z,75.37
2018-12-02T03:55:20.160Z,72.00
2018-12-02T03:57:49.125Z,68.17
2018-12-02T04:00:20.854Z,63.53
2018-12-02T04:02:50.047Z,66.43
2018-12-02T04:05:20.169Z,71.43
2018-12-02T04:07:49.256Z,69.40
2018-12-02T04:10:18.871Z,68.90
2018-12-02T04:12:48.916Z,68.17
2018-12-02T04:15:18.963Z,69.90
2018-12-02T04:17:47.982Z,65.27
2018-12-02T04:20:17.799Z,64.63
2018-12-02T04:22:48.000Z,72.53
2018-12-02T04:25:24.160Z,68.20
2018-12-02T04:27:53.342Z,62.87
2018-12-02T04:30:23.263Z,64.37
2018-12-02T04:32:53.021Z,70.90
2018-12-02T04:35:24.063Z,67.40
2018-12-02T04:37:53.175Z,68.93
2018-12-02T04:40:22.282Z,64.60
2018-12-02T04:42:51.232Z,61.73
2018-12-02T04:45:20.813Z,65.57
2018-12-02T04:47:49.950Z,68.73
2018-12-02T04:50:22.044Z,61.37
2018-12-02T04:52:51.037Z,61.23
2018-12-02T04:55:19.980Z,66.70
2018-12-02T04:57:49.039Z,66.73
2018-12-02T05:00:18.956Z,67.07
2018-12-02T05:02:51.691Z,64.67
2018-12-02T05:05:24.519Z,66.60
2018-12-02T05:07:53.953Z,60.33
2018-12-02T05:10:23.006Z,69.83
2018-12-02T05:12:52.300Z,61.63
2018-12-02T05:15:22.048Z,66.40
2018-12-02T05:17:50.951Z,65.90
2018-12-02T05:20:21.585Z,64.87
2018-12-02T05:22:50.616Z,65.37
2018-12-02T05:25:19.877Z,64.43
2018-12-02T05:27:48.787Z,63.30
2018-12-02T05:30:21.680Z,70.60
2018-12-02T05:32:53.361Z,71.33
2018-12-02T05:35:22.473Z,65.23
2018-12-02T05:37:51.385Z,65.93
2018-12-02T05:40:21.368Z,66.07
2018-12-02T05:42:50.406Z,65.17
2018-12-02T05:45:19.638Z,67.53
2018-12-02T05:47:48.664Z,62.87
2018-12-02T05:50:22.412Z,64.83
2018-12-02T05:52:56.493Z,66.30
2018-12-02T05:55:26.649Z,60.43
2018-12-02T05:57:55.561Z,69.80
2018-12-02T06:00:24.598Z,61.73
2018-12-02T06:02:53.582Z,62.63
2018-12-02T06:05:22.590Z,65.53
2018-12-02T06:07:51.586Z,64.50
2018-12-02T06:10:21.522Z,65.40
2018-12-02T06:12:50.643Z,65.07
2018-12-02T06:15:21.138Z,61.23
2018-12-02T06:17:50.129Z,67.53
2018-12-02T06:20:25.496Z,64.20
2018-12-02T06:22:56.372Z,64.17
2018-12-02T06:25:25.579Z,65.70
2018-12-02T06:27:54.630Z,68.23
2018-12-02T06:30:26.299Z,71.50
2018-12-02T06:32:57.310Z,67.03
2018-12-02T06:35:26.384Z,71.53
2018-12-02T06:37:56.272Z,65.33
2018-12-02T06:40:27.157Z,66.97
2018-12-02T06:42:56.094Z,61.40
2018-12-02T06:45:25.155Z,67.93
2018-12-02T06:47:54.240Z,69.70
2018-12-02T06:50:24.228Z,71.90
2018-12-02T06:52:53.899Z,70.37
2018-12-02T06:55:35.838Z,64.17
2018-12-02T06:58:44.513Z,69.60
2018-12-02T07:01:38.018Z,69.17
2018-12-02T07:04:40.918Z,67.37
2018-12-02T07:07:09.946Z,64.73
2018-12-02T07:09:38.920Z,68.50
2018-12-02T07:12:08.004Z,68.70
2018-12-02T07:14:36.976Z,70.67
2018-12-02T07:17:06.047Z,67.37
2018-12-02T07:19:37.616Z,64.77
2018-12-02T07:22:11.368Z,59.77
2018-12-02T07:24:41.594Z,64.63
2018-12-02T07:27:12.254Z,68.10
2018-12-02T07:29:41.272Z,66.87
2018-12-02T07:32:10.251Z,64.67
2018-12-02T07:34:39.244Z,62.33
2018-12-02T07:37:13.981Z,62.63
2018-12-02T07:39:58.155Z,66.03
2018-12-02T07:42:27.206Z,63.03
2018-12-02T07:44:56.792Z,63.27
2018-12-02T07:47:25.751Z,62.93
2018-12-02T07:49:54.849Z,63.80
2018-12-02T07:52:23.809Z,69.03
2018-12-02T07:54:52.803Z,64.70
2018-12-02T07:57:21.827Z,66.33
2018-12-02T07:59:51.089Z,61.83
2018-12-02T08:02:20.125Z,60.20
2018-12-02T08:04:49.129Z,65.00
2018-12-02T08:07:18.075Z,64.63
2018-12-02T08:09:47.201Z,62.87
2018-12-02T08:12:16.141Z,59.40
2018-12-02T08:14:45.094Z,59.30
2018-12-02T08:17:14.034Z,66.37
2018-12-02T08:19:43.190Z,58.10
2018-12-02T08:22:12.235Z,60.27
2018-12-02T08:24:41.191Z,61.67
2018-12-02T08:27:10.350Z,62.93
2018-12-02T08:29:39.307Z,69.70
2018-12-02T08:32:08.232Z,64.70
2018-12-02T08:34:37.840Z,65.20
2018-12-02T08:37:06.854Z,66.27
2018-12-02T08:39:35.798Z,64.70
2018-12-02T08:42:05.489Z,63.67
2018-12-02T08:44:34.441Z,63.13
2018-12-02T08:47:03.390Z,64.70
2018-12-02T08:49:32.368Z,61.93
2018-12-02T08:52:02.305Z,64.23
2018-12-02T08:54:31.256Z,63.63
2018-12-02T08:57:00.231Z,60.00
2018-12-02T08:59:29.254Z,63.03
2018-12-02T09:01:58.173Z,64.50
2018-12-02T09:04:27.195Z,62.63
2018-12-02T09:06:56.087Z,58.17
2018-12-02T09:09:25.065Z,61.17
2018-12-02T09:11:54.069Z,59.47
2018-12-02T09:14:23.016Z,58.20
2018-12-02T09:16:51.940Z,59.70
2018-12-02T09:19:20.898Z,60.43
2018-12-02T09:21:49.846Z,62.07
2018-12-02T09:24:18.815Z,59.03
2018-12-02T09:26:47.800Z,54.37
2018-12-02T09:29:16.942Z,60.03
2018-12-02T09:31:45.871Z,57.90
2018-12-02T09:34:14.849Z,58.53
2018-12-02T09:36:43.812Z,55.93
2018-12-02T09:39:18.248Z,59.33
2018-12-02T09:41:41.792Z,58.03
2018-12-02T09:44:10.781Z,56.70
2018-12-02T09:46:39.708Z,55.87
2018-12-02T09:49:08.671Z,54.97
2018-12-02T09:51:37.650Z,54.43
2018-12-02T09:54:06.819Z,52.80
2018-12-02T09:56:35.814Z,54.13
2018-12-02T09:59:04.791Z,56.57
2018-12-02T10:01:33.716Z,52.07
2018-12-02T10:04:02.688Z,49.73
2018-12-02T10:06:31.682Z,48.77
2018-12-02T10:09:00.653Z,50.37
2018-12-02T10:11:29.635Z,49.43
2018-12-02T10:13:58.547Z,50.37
2018-12-02T10:16:27.497Z,47.43
2018-12-02T10:18:56.526Z,48.10
2018-12-02T10:21:25.509Z,47.37
2018-12-02T10:23:54.547Z,49.90
2018-12-02T10:26:23.582Z,46.27
2018-12-02T10:28:54.440Z,46.13
2018-12-02T10:31:23.548Z,47.03
2018-12-02T10:33:52.588Z,47.80
2018-12-02T10:36:21.528Z,47.67
2018-12-02T10:38:50.529Z,46.90
2018-12-02T10:41:19.507Z,46.23
2018-12-02T10:43:48.491Z,48.70
2018-12-02T10:46:17.454Z,46.33
2018-12-02T10:48:46.494Z,47.07
2018-12-02T10:51:15.463Z,45.67
2018-12-02T10:53:44.499Z,44.70
2018-12-02T10:56:13.563Z,43.13
2018-12-02T10:58:42.530Z,43.83
2018-12-02T11:01:18.243Z,43.97
2018-12-02T11:03:48.022Z,44.67
2018-12-02T11:06:17.023Z,42.53
2018-12-02T11:08:47.035Z,44.70
2018-12-02T11:11:16.604Z,42.83
2018-12-02T11:13:45.583Z,43.13
2018-12-02T11:16:14.529Z,43.97
2018-12-02T11:18:43.488Z,43.20
2018-12-02T11:21:12.467Z,42.20
2018-12-02T11:23:41.515Z,43.07
2018-12-02T11:26:10.485Z,42.53
2018-12-02T11:28:39.500Z,40.23
2018-12-02T11:31:08.574Z,39.17
2018-12-02T11:33:37.692Z,37.77
2018-12-02T11:36:06.756Z,36.57
2018-12-02T11:38:35.740Z,37.13
2018-12-02T11:41:04.775Z,35.27
2018-12-02T11:43:33.726Z,35.33
2018-12-02T11:46:02.719Z,35.37
2018-12-02T11:48:31.689Z,36.33
2018-12-02T11:51:00.675Z,32.23
2018-12-02T11:53:29.644Z,34.73
2018-12-02T11:55:58.582Z,32.37
2018-12-02T11:58:27.626Z,32.63
2018-12-02T12:00:56.583Z,31.57
2018-12-02T12:03:25.639Z,30.97
2018-12-02T12:05:54.585Z,30.07
2018-12-02T12:08:23.561Z,28.90
2018-12-02T12:10:53.496Z,29.53
2018-12-02T12:13:23.460Z,29.70
2018-12-02T12:15:52.620Z,28.80
2018-12-02T12:18:21.660Z,28.30
2018-12-02T12:20:50.604Z,28.30
2018-12-02T12:23:21.675Z,27.07
2018-12-02T12:25:50.667Z,29.00
2018-12-02T12:28:19.612Z,27.73
2018-12-02T12:30:48.647Z,27.67
2018-12-02T12:33:17.649Z,28.27
2018-12-02T12:35:49.219Z,27.63
2018-12-02T12:38:18.309Z,26.87
2018-12-02T12:40:49.037Z,27.53
2018-12-02T12:43:26.656Z,27.47
2018-12-02T12:45:55.717Z,29.73
2018-12-02T12:48:24.667Z,28.13
2018-12-02T12:50:53.578Z,28.20
2018-12-02T12:53:22.588Z,27.23
2018-12-02T12:55:53.037Z,26.80
2018-12-02T12:58:22.045Z,26.40
2018-12-02T13:00:51.155Z,27.60
2018-12-02T13:03:20.094Z,27.30
2018-12-02T13:05:49.184Z,27.93
2018-12-02T13:08:18.108Z,26.63
2018-12-02T13:10:47.056Z,27.50
2018-12-02T13:13:16.044Z,28.27
2018-12-02T13:15:45.037Z,28.37
2018-12-02T13:18:14.012Z,28.97
2018-12-02T13:20:45.443Z,28.03
2018-12-02T13:23:14.386Z,26.13
2018-12-02T13:25:43.352Z,27.03
2018-12-02T13:28:12.324Z,26.60
2018-12-02T13:30:41.436Z,26.80
2018-12-02T13:33:10.378Z,29.30
2018-12-02T13:35:40.204Z,29.17
2018-12-02T13:38:09.274Z,27.80
2018-12-02T13:40:39.548Z,29.10
2018-12-02T13:43:15.211Z,31.07
2018-12-02T13:45:44.360Z,31.80
2018-12-02T13:48:13.284Z,30.60
2018-12-02T13:50:42.294Z,31.00
2018-12-02T13:53:11.294Z,30.93
2018-12-02T13:55:40.229Z,29.37
2018-12-02T13:58:09.212Z,29.07
2018-12-02T14:00:39.614Z,30.73
2018-12-02T14:03:11.801Z,30.50
2018-12-02T14:05:45.970Z,29.03
2018-12-02T14:08:15.049Z,27.37
2018-12-02T14:10:44.544Z,28.30
2018-12-02T14:13:18.066Z,26.60
2018-12-02T14:17:56.469Z,27.30
2018-12-02T14:20:25.456Z,25.17
2018-12-02T14:22:54.364Z,24.80
2018-12-02T14:25:23.293Z,26.47
2018-12-02T14:27:53.577Z,25.13
2018-12-02T14:30:22.894Z,26.40
2018-12-02T14:32:51.809Z,26.27
2018-12-02T14:35:20.771Z,25.00
2018-12-02T14:37:49.770Z,23.77
2018-12-02T14:40:18.920Z,24.37
2018-12-02T14:42:47.903Z,24.27
2018-12-02T14:45:17.664Z,24.57
2018-12-02T14:47:46.576Z,24.60
2018-12-02T14:50:16.545Z,25.40
2018-12-02T14:52:46.965Z,23.20
2018-12-02T14:55:18.165Z,23.30
2018-12-02T14:57:47.108Z,22.70
2018-12-02T15:00:17.144Z,22.43
2018-12-02T15:02:46.199Z,23.63
2018-12-02T15:05:15.352Z,25.83
2018-12-02T15:07:44.951Z,24.93
2018-12-02T15:10:17.075Z,24.17
2018-12-02T15:12:46.978Z,23.93
2018-12-02T15:15:17.078Z,24.60
2018-12-02T15:17:47.245Z,26.00
2018-12-02T15:20:17.606Z,22.43
2018-12-02T15:22:46.563Z,24.23
2018-12-02T15:25:15.601Z,24.93
2018-12-02T15:27:45.197Z,23.20
2018-12-02T15:30:16.879Z,23.73
2018-12-02T15:32:49.620Z,24.53
2018-12-02T15:35:18.680Z,23.30
2018-12-02T15:37:47.603Z,23.50
2018-12-02T15:40:17.620Z,24.90
2018-12-02T15:42:48.711Z,25.90
2018-12-02T15:45:17.987Z,23.70
2018-12-02T15:47:46.943Z,25.07
2018-12-02T15:50:23.601Z,25.63
2018-12-02T15:52:52.902Z,25.23
2018-12-02T15:55:26.113Z,24.07
2018-12-02T15:57:55.097Z,28.17
2018-12-02T16:00:27.141Z,25.70
2018-12-02T16:02:56.095Z,26.07
2018-12-02T16:05:25.135Z,26.10
2018-12-02T16:07:54.119Z,23.93
2018-12-02T16:10:23.056Z,27.80
2018-12-02T16:12:53.058Z,24.47
2018-12-02T16:15:25.045Z,26.10
2018-12-02T16:17:54.050Z,24.57
2018-12-02T16:20:26.778Z,27.30
2018-12-02T16:22:55.759Z,25.73
2018-12-02T16:25:24.670Z,29.63
2018-12-02T16:27:53.626Z,24.53
2018-12-02T16:30:22.589Z,26.53
2018-12-02T16:32:55.102Z,24.63
2018-12-02T16:35:26.025Z,24.63
2018-12-02T16:37:56.288Z,27.03
2018-12-02T16:40:26.198Z,23.87
2018-12-02T16:42:56.442Z,25.00
2018-12-02T16:45:25.418Z,24.23
2018-12-02T16:47:56.700Z,24.60
2018-12-02T16:50:30.030Z,25.03
2018-12-02T16:53:02.624Z,24.37
2018-12-02T16:55:34.177Z,25.83
2018-12-02T16:58:09.311Z,23.57
2018-12-02T17:00:49.243Z,23.20
2018-12-02T17:03:18.205Z,25.17
2018-12-02T17:05:47.179Z,24.43
2018-12-02T17:08:16.134Z,25.43
2018-12-02T17:10:50.380Z,26.77
2018-12-02T17:13:14.036Z,23.67
2018-12-02T17:15:42.956Z,23.70
2018-12-02T17:18:11.896Z,23.73
2018-12-02T17:20:40.792Z,21.57
2018-12-02T17:23:09.758Z,23.90
2018-12-02T17:25:38.766Z,20.60
2018-12-02T17:28:07.712Z,22.80
2018-12-02T17:30:42.106Z,19.37
2018-12-02T17:33:11.576Z,23.20
2018-12-02T17:35:40.524Z,19.83
2018-12-02T17:38:09.614Z,22.63
2018-12-02T17:40:38.567Z,20.93
2018-12-02T17:43:09.921Z,22.03
2018-12-02T17:45:38.874Z,22.30
2018-12-02T17:48:07.933Z,22.53
2018-12-02T17:50:37.487Z,21.13
2018-12-02T17:53:09.031Z,23.20
2018-12-02T17:55:51.730Z,20.83
2018-12-02T17:58:20.700Z,22.57
2018-12-02T18:00:49.725Z,20.00
2018-12-02T18:03:23.999Z,22.30
2018-12-02T18:05:53.088Z,21.57
2018-12-02T18:08:22.113Z,29.30
2018-12-02T18:10:51.180Z,24.00
2018-12-02T18:13:20.308Z,21.83
2018-12-02T18:15:49.385Z,20.60
2018-12-02T18:18:18.353Z,20.70
2018-12-02T18:20:47.394Z,22.77
2018-12-02T18:23:16.341Z,22.10
2018-12-02T18:25:45.330Z,22.73
2018-12-02T18:28:14.350Z,23.67
2018-12-02T18:30:43.363Z,22.73
2018-12-02T18:33:12.955Z,22.00
2018-12-02T18:35:49.276Z,23.90
2018-12-02T18:38:19.801Z,23.50
2018-12-02T18:40:54.173Z,22.17
2018-12-02T18:43:23.390Z,20.27
2018-12-02T18:45:52.321Z,23.30
2018-12-02T18:48:21.322Z,20.87
2018-12-02T18:50:50.266Z,21.30
2018-12-02T18:53:19.202Z,21.83
2018-12-02T18:55:48.167Z,20.67
2018-12-02T18:58:17.171Z,19.43
2018-12-02T19:00:47.617Z,20.47
2018-12-02T19:03:19.285Z,20.20
2018-12-02T19:05:49.627Z,20.23
2018-12-02T19:08:18.640Z,18.20
2018-12-02T19:10:50.856Z,20.27
2018-12-02T19:13:19.835Z,21.00
2018-12-02T19:15:48.821Z,19.07
2018-12-02T19:18:17.824Z,20.80
2018-12-02T19:20:47.456Z,21.43
2018-12-02T19:23:18.581Z,21.13
2018-12-02T19:25:47.656Z,21.80
2018-12-02T19:28:16.699Z,20.43
2018-12-02T19:30:45.646Z,19.60
2018-12-02T19:33:18.052Z,20.37
2018-12-02T19:35:47.043Z,20.80
2018-12-02T19:38:19.581Z,21.07
2018-12-02T19:40:48.587Z,20.10
2018-12-02T19:43:17.582Z,22.53
2018-12-02T19:45:48.075Z,21.20
2018-12-02T19:48:17.061Z,19.83
2018-12-02T19:50:46.165Z,20.17
2018-12-02T19:53:15.096Z,20.00
2018-12-02T19:55:44.017Z,20.77
2018-12-02T19:58:13.860Z,19.63
2018-12-02T20:00:44.565Z,19.00
2018-12-02T20:03:14.603Z,20.17
2018-12-02T20:05:44.135Z,19.63
2018-12-02T20:08:14.043Z,20.63
2018-12-02T20:10:44.841Z,18.77
2018-12-02T20:13:15.012Z,19.80
2018-12-02T20:15:49.418Z,19.77
2018-12-02T20:18:18.340Z,20.40
2018-12-02T20:20:51.803Z,19.63
2018-12-02T20:25:28.964Z,20.00
2018-12-02T20:28:03.145Z,19.17
2018-12-02T20:30:33.449Z,20.50
2018-12-02T20:33:02.411Z,21.93
2018-12-02T20:35:31.429Z,20.87
2018-12-02T20:38:01.013Z,32.50
2018-12-02T20:40:29.971Z,22.90
2018-12-02T20:42:58.919Z,22.97
2018-12-02T20:45:27.870Z,21.90
2018-12-02T20:47:56.966Z,21.80
2018-12-02T20:50:25.959Z,21.03
2018-12-02T20:52:54.861Z,21.03
2018-12-02T20:55:25.208Z,22.87
2018-12-02T20:57:55.988Z,22.73
2018-12-02T21:00:24.947Z,20.47
2018-12-02T21:02:55.685Z,21.50
2018-12-02T21:05:34.970Z,22.57
2018-12-02T21:08:03.921Z,22.27
2018-12-02T21:10:32.860Z,23.47
2018-12-02T21:13:01.965Z,22.80
2018-12-02T21:15:30.969Z,24.27
2018-12-02T21:18:00.190Z,24.23
2018-12-02T21:20:29.652Z,22.97
2018-12-02T21:22:58.916Z,25.40
2018-12-02T21:25:28.154Z,24.13
2018-12-02T21:27:57.202Z,23.63
2018-12-02T21:30:27.637Z,24.63
2018-12-02T21:32:58.111Z,22.70
2018-12-02T21:35:27.004Z,21.67
2018-12-02T21:37:56.750Z,25.57
2018-12-02T21:40:25.730Z,23.90
2018-12-02T21:42:54.686Z,24.33
2018-12-02T21:45:23.623Z,26.63
2018-12-02T21:47:54.811Z,27.27
2018-12-02T21:50:26.160Z,26.07
2018-12-02T21:52:55.622Z,26.37
2018-12-02T21:55:24.563Z,28.93
2018-12-02T21:57:53.624Z,23.83
2018-12-02T22:00:27.698Z,24.97
2018-12-02T22:02:56.652Z,23.93
2018-12-02T22:05:25.652Z,24.73
2018-12-02T22:07:54.741Z,24.33
2018-12-02T22:10:30.061Z,26.57
2018-12-02T22:12:58.227Z,25.07
2018-12-02T22:15:27.281Z,25.37
2018-12-02T22:17:56.261Z,23.80
2018-12-02T22:20:25.263Z,24.27
2018-12-02T22:22:54.195Z,26.23
2018-12-02T22:25:24.102Z,22.97
2018-12-02T22:27:55.515Z,26.47
2018-12-02T22:30:25.230Z,26.00
2018-12-02T22:32:54.268Z,27.20
2018-12-02T22:35:23.296Z,26.40
2018-12-02T22:37:52.265Z,24.77
2018-12-02T22:40:23.186Z,26.27
2018-12-02T22:42:53.203Z,26.77
2018-12-02T22:45:25.523Z,26.23
2018-12-02T22:47:54.538Z,27.20
2018-12-02T22:50:24.785Z,26.13
2018-12-02T22:52:54.946Z,25.63
2018-12-02T22:55:23.884Z,25.63
2018-12-02T22:57:52.853Z,26.73
2018-12-02T23:00:33.993Z,27.43
2018-12-02T23:03:10.051Z,25.90
2018-12-02T23:05:39.566Z,25.30
2018-12-02T23:08:08.556Z,27.97
2018-12-02T23:10:37.644Z,25.83
2018-12-02T23:13:07.872Z,26.17
2018-12-02T23:15:37.162Z,27.20
2018-12-02T23:18:07.376Z,25.93
2018-12-02T23:20:36.362Z,26.43
2018-12-02T23:23:05.404Z,24.63
2018-12-02T23:25:34.424Z,26.33
2018-12-02T23:28:03.346Z,26.57
2018-12-02T23:30:32.288Z,25.30
2018-12-02T23:33:01.246Z,25.10
2018-12-02T23:35:30.198Z,23.70
2018-12-02T23:37:59.156Z,24.67
2018-12-02T23:40:28.090Z,24.27
2018-12-02T23:42:57.054Z,24.23
2018-12-02T23:45:25.977Z,23.73
2018-12-02T23:47:54.930Z,23.63
2018-12-02T23:50:24.638Z,23.53
2018-12-02T23:52:53.646Z,24.07
2018-12-02T23:55:22.975Z,24.23
2018-12-02T23:57:51.924Z,24.60
